Time;durP1;ratioP1;P1;durP2;ratioP2;P2;SDS_P1;SDS_P2;PMS_P1;PMS_P2;Temp;Humidity;BMP_temperature;BMP_pressure;BME280_temperature;BME280_humidity;BME280_pressure;Samples;Min_cycle;Max_cycle;Signal;HPM_P1;HPM_P2
2023/07/17 00:00:22;;;;;;;6.15;4.18;;;19.10;83.70;;;;;;5031253;28;20017;-47
2023/07/17 00:02:47;;;;;;;8.57;4.25;;;19.10;83.70;;;;;;5031653;28;20033;-47
2023/07/17 00:05:13;;;;;;;8.88;4.35;;;19.10;84.40;;;;;;5031394;28;20080;-45
2023/07/17 00:07:40;;;;;;;6.25;3.60;;;19.10;84.00;;;;;;5031565;28;20029;-46
2023/07/17 00:10:10;;;;;;;8.60;4.22;;;19.10;84.10;;;;;;5031487;28;20014;-45
2023/07/17 00:12:37;;;;;;;7.35;4.22;;;18.90;85.30;;;;;;5030894;28;20295;-46
2023/07/17 00:15:05;;;;;;;4.65;3.60;;;18.90;85.50;;;;;;5031138;28;20030;-46
2023/07/17 00:17:32;;;;;;;5.38;4.05;;;18.90;85.80;;;;;;5030946;28;20022;-46
2023/07/17 00:19:58;;;;;;;8.63;3.67;;;18.80;85.40;;;;;;5031106;28;20100;-46
2023/07/17 00:22:24;;;;;;;5.38;3.95;;;18.80;85.70;;;;;;5030772;28;20397;-45
2023/07/17 00:24:52;;;;;;;7.05;4.18;;;18.80;85.90;;;;;;5031329;28;20053;-47
2023/07/17 00:27:18;;;;;;;7.32;3.90;;;18.70;86.90;;;;;;5031289;28;20334;-46
2023/07/17 00:29:44;;;;;;;9.80;4.70;;;18.70;85.70;;;;;;5035590;28;20536;-46
2023/07/17 00:32:13;;;;;;;9.60;4.68;;;18.70;85.90;;;;;;5030659;28;20025;-45
2023/07/17 00:34:40;;;;;;;9.60;4.45;;;18.60;85.90;;;;;;5031343;28;20021;-48
2023/07/17 00:37:06;;;;;;;8.57;4.30;;;18.60;86.50;;;;;;5030564;28;20033;-45
2023/07/17 00:39:32;;;;;;;6.55;4.63;;;18.70;85.80;;;;;;5030656;28;20022;-46
2023/07/17 00:41:58;;;;;;;11.77;4.47;;;18.60;86.00;;;;;;5030435;28;20095;-47
2023/07/17 00:44:24;;;;;;;9.02;4.45;;;18.60;86.20;;;;;;5030714;28;20065;-46
2023/07/17 00:46:52;;;;;;;12.50;4.80;;;18.50;86.40;;;;;;5030532;28;20102;-45
2023/07/17 00:49:18;;;;;;;8.05;4.60;;;18.50;86.80;;;;;;5035114;28;20103;-49
2023/07/17 00:51:44;;;;;;;7.28;4.55;;;18.50;87.00;;;;;;5029017;28;20013;-45
2023/07/17 00:54:11;;;;;;;15.90;4.43;;;18.50;87.10;;;;;;5030178;28;20033;-46
2023/07/17 00:56:37;;;;;;;7.07;4.25;;;18.40;87.10;;;;;;5024897;28;20033;-46
2023/07/17 00:59:04;;;;;;;7.45;4.50;;;18.40;87.70;;;;;;5030038;28;20026;-46
2023/07/17 01:01:31;;;;;;;7.32;4.28;;;18.40;87.60;;;;;;5029107;28;20105;-46
2023/07/17 01:03:59;;;;;;;10.45;4.90;;;18.40;87.60;;;;;;5038305;28;20050;-45
2023/07/17 01:06:27;;;;;;;6.97;4.65;;;18.40;87.70;;;;;;5029986;28;20029;-45
2023/07/17 01:08:53;;;;;;;7.70;4.03;;;18.40;87.70;;;;;;5030217;28;20049;-49
2023/07/17 01:11:19;;;;;;;7.03;3.90;;;18.30;88.10;;;;;;5034811;28;20103;-48
2023/07/17 01:13:49;;;;;;;9.27;4.13;;;18.40;87.50;;;;;;5029734;28;20482;-46
2023/07/17 01:16:15;;;;;;;;;;;18.40;87.20;;;;;;5030776;28;20033;-45
2023/07/17 01:18:41;;;;;;;11.13;4.70;;;18.40;86.70;;;;;;5030511;28;20298;-46
2023/07/17 01:21:09;;;;;;;10.18;4.03;;;18.50;86.10;;;;;;5029389;28;20017;-45
2023/07/17 01:23:35;;;;;;;5.70;3.90;;;18.60;85.80;;;;;;5029552;28;20104;-47
2023/07/17 01:26:09;;;;;;;10.02;4.30;;;18.60;85.50;;;;;;5030224;28;20101;-47
2023/07/17 01:28:35;;;;;;;12.35;4.72;;;18.60;85.50;;;;;;5022039;28;20025;-47
2023/07/17 01:31:00;;;;;;;10.10;4.30;;;18.60;85.50;;;;;;5027206;28;20088;-45
2023/07/17 01:33:25;;;;;;;7.22;4.28;;;18.70;85.80;;;;;;5027202;28;20148;-46
2023/07/17 01:35:51;;;;;;;8.45;4.88;;;18.60;85.80;;;;;;5028551;28;20018;-45
2023/07/17 01:38:17;;;;;;;8.52;4.18;;;18.60;85.90;;;;;;5022562;28;20040;-45
2023/07/17 01:40:42;;;;;;;9.27;4.63;;;18.70;85.80;;;;;;5029599;28;20030;-46
2023/07/17 01:43:08;;;;;;;5.72;4.10;;;18.60;85.90;;;;;;5031651;28;20041;-46
2023/07/17 01:45:33;;;;;;;10.38;4.47;;;18.60;86.10;;;;;;5029413;28;20056;-45
2023/07/17 01:47:59;;;;;;;13.68;5.15;;;18.60;85.80;;;;;;5029506;28;20034;-45
2023/07/17 01:50:24;;;;;;;8.45;4.57;;;18.60;85.80;;;;;;5028436;28;20025;-45
2023/07/17 01:52:50;;;;;;;6.32;3.92;;;18.60;85.90;;;;;;5028706;28;20273;-44
2023/07/17 01:55:15;;;;;;;8.25;4.32;;;18.50;86.10;;;;;;5029903;28;20036;-45
2023/07/17 01:57:41;;;;;;;6.93;3.63;;;18.50;86.20;;;;;;5028535;28;20108;-46
2023/07/17 02:00:07;;;;;;;6.88;4.40;;;18.50;86.20;;;;;;5029624;28;20441;-46
2023/07/17 02:02:33;;;;;;;10.77;4.82;;;18.50;86.30;;;;;;5029660;28;20087;-46
2023/07/17 02:04:58;;;;;;;7.68;4.40;;;18.40;86.50;;;;;;5028294;28;20017;-45
2023/07/17 02:07:24;;;;;;;9.40;5.20;;;18.40;86.30;;;;;;5029078;28;20376;-45
2023/07/17 02:09:49;;;;;;;11.23;5.10;;;18.40;86.40;;;;;;5029701;28;20024;-46
2023/07/17 02:12:15;;;;;;;7.90;4.07;;;18.40;86.70;;;;;;5028612;28;20036;-46
2023/07/17 02:14:40;;;;;;;7.55;4.22;;;18.40;86.60;;;;;;5028951;28;20036;-46
2023/07/17 02:17:06;;;;;;;6.47;4.25;;;18.40;86.60;;;;;;5028990;28;20167;-48
2023/07/17 02:19:31;;;;;;;7.47;4.43;;;18.40;86.50;;;;;;5029279;28;20048;-46
2023/07/17 02:21:57;;;;;;;7.40;4.15;;;18.40;87.30;;;;;;5043993;28;20017;-46
2023/07/17 02:24:22;;;;;;;7.20;4.40;;;18.40;87.70;;;;;;5029059;28;20029;-46
2023/07/17 02:26:48;;;;;;;6.18;4.75;;;18.30;89.10;;;;;;5029425;28;20039;-47
2023/07/17 02:29:13;;;;;;;5.93;4.10;;;18.30;90.10;;;;;;5029021;28;20040;-47
2023/07/17 02:31:39;;;;;;;6.55;4.13;;;18.20;89.30;;;;;;5028792;28;20409;-46
2023/07/17 02:34:07;;;;;;;7.80;4.05;;;18.10;90.60;;;;;;5029315;28;20022;-46
2023/07/17 02:36:32;;;;;;;6.55;4.53;;;18.00;90.30;;;;;;5021084;28;20017;-46
2023/07/17 02:38:58;;;;;;;6.97;4.25;;;17.90;90.60;;;;;;5032758;28;20068;-45
2023/07/17 02:41:23;;;;;;;6.38;4.20;;;17.80;90.10;;;;;;5048261;28;20022;-46
2023/07/17 02:43:51;;;;;;;8.95;5.45;;;17.80;91.00;;;;;;5048412;28;20477;-46
2023/07/17 02:46:16;;;;;;;10.35;5.22;;;17.70;90.60;;;;;;5033026;28;20025;-46
2023/07/17 02:48:42;;;;;;;11.30;4.55;;;17.70;91.30;;;;;;5033207;28;20029;-46
2023/07/17 02:51:07;;;;;;;9.50;5.15;;;17.60;91.40;;;;;;5038038;28;20036;-46
2023/07/17 02:53:33;;;;;;;7.22;5.40;;;17.50;91.70;;;;;;5032822;28;20325;-47
2023/07/17 02:55:58;;;;;;;7.75;5.15;;;17.40;92.10;;;;;;5032657;28;20010;-47
2023/07/17 02:58:24;;;;;;;6.88;4.97;;;17.30;92.50;;;;;;5032758;28;20486;-45
2023/07/17 03:00:49;;;;;;;11.93;5.30;;;17.20;92.70;;;;;;5032930;28;20025;-45
2023/07/17 03:03:15;;;;;;;7.45;4.82;;;17.20;93.00;;;;;;5032364;28;20053;-46
2023/07/17 03:05:40;;;;;;;7.38;5.20;;;17.10;93.60;;;;;;5032781;28;20482;-47
2023/07/17 03:08:06;;;;;;;10.18;5.95;;;17.00;93.40;;;;;;5032464;28;20557;-47
2023/07/17 03:10:31;;;;;;;7.50;5.10;;;17.00;94.20;;;;;;5032496;28;20096;-48
2023/07/17 03:12:57;;;;;;;7.53;4.70;;;16.90;94.60;;;;;;5032114;28;20025;-46
2023/07/17 03:15:23;;;;;;;9.40;5.03;;;16.90;95.20;;;;;;5032436;28;20328;-47
2023/07/17 03:17:48;;;;;;;11.13;5.63;;;16.90;94.80;;;;;;5032615;28;20083;-47
2023/07/17 03:20:14;;;;;;;7.82;4.90;;;16.90;94.30;;;;;;5032132;28;20036;-45
2023/07/17 03:22:40;;;;;;;10.02;5.07;;;16.90;94.50;;;;;;5031932;28;20032;-48
2023/07/17 03:25:06;;;;;;;9.93;5.00;;;16.90;94.10;;;;;;5031107;28;20018;-47
2023/07/17 03:27:32;;;;;;;12.15;5.32;;;16.90;94.10;;;;;;5032180;28;20017;-45
2023/07/17 03:29:58;;;;;;;9.65;5.85;;;16.90;94.20;;;;;;5032528;28;20075;-50
2023/07/17 03:32:23;;;;;;;8.40;5.65;;;16.90;94.60;;;;;;5032349;28;20069;-46
2023/07/17 03:34:49;;;;;;;7.63;4.97;;;16.90;93.90;;;;;;5032454;28;20474;-45
2023/07/17 03:37:14;;;;;;;9.18;5.38;;;16.90;93.90;;;;;;5032502;28;20057;-45
2023/07/17 03:39:40;;;;;;;7.55;5.20;;;16.90;93.60;;;;;;5038960;28;20025;-45
2023/07/17 03:42:10;;;;;;;10.57;5.90;;;17.00;93.30;;;;;;5031509;28;20301;-45
2023/07/17 03:44:37;;;;;;;17.05;5.57;;;17.00;92.90;;;;;;5032148;28;20018;-47
2023/07/17 03:47:02;;;;;;;10.63;5.20;;;17.00;92.90;;;;;;5032154;28;20022;-47
2023/07/17 03:49:29;;;;;;;8.20;5.00;;;17.00;92.70;;;;;;5031728;28;20025;-47
2023/07/17 03:51:54;;;;;;;10.65;5.85;;;17.00;93.40;;;;;;5030628;28;20037;-46
2023/07/17 03:54:20;;;;;;;8.25;5.55;;;17.00;92.60;;;;;;5031764;28;20105;-46
2023/07/17 03:56:45;;;;;;;8.85;6.47;;;17.10;92.60;;;;;;5031757;28;20155;-47
2023/07/17 03:59:11;;;;;;;17.13;6.38;;;17.10;92.90;;;;;;5030357;28;20390;-46
2023/07/17 04:01:36;;;;;;;11.27;6.05;;;17.10;92.40;;;;;;5030651;28;20503;-45
2023/07/17 04:04:03;;;;;;;12.63;5.82;;;17.10;92.30;;;;;;5032102;28;20022;-47
2023/07/17 04:06:28;;;;;;;9.27;5.72;;;17.20;92.50;;;;;;5031414;28;20419;-46
2023/07/17 04:08:54;;;;;;;13.30;6.25;;;17.20;92.20;;;;;;5031448;28;20022;-47
2023/07/17 04:11:20;;;;;;;9.40;5.72;;;17.20;92.20;;;;;;5031425;28;20099;-46
2023/07/17 04:13:45;;;;;;;8.00;5.80;;;17.20;92.00;;;;;;5031331;28;20018;-48
2023/07/17 04:16:13;;;;;;;9.05;5.55;;;17.20;92.00;;;;;;5031114;28;20806;-45
2023/07/17 04:18:39;;;;;;;10.60;5.82;;;17.30;91.90;;;;;;5032244;28;20026;-46
2023/07/17 04:21:04;;;;;;;9.27;5.50;;;17.30;91.90;;;;;;5030531;28;20045;-46
2023/07/17 04:23:30;;;;;;;10.98;5.82;;;17.30;91.80;;;;;;5031096;28;20035;-46
2023/07/17 04:25:55;;;;;;;8.02;5.68;;;17.40;91.90;;;;;;5031521;28;20029;-46
2023/07/17 04:28:21;;;;;;;9.82;5.70;;;17.40;91.50;;;;;;5030935;28;20029;-47
2023/07/17 04:30:46;;;;;;;10.70;5.47;;;17.40;91.50;;;;;;5030862;28;20052;-46
2023/07/17 04:33:12;;;;;;;7.60;5.15;;;17.50;91.40;;;;;;5031128;28;20036;-50
2023/07/17 04:35:38;;;;;;;8.82;6.30;;;17.50;91.50;;;;;;5031019;28;20075;-48
2023/07/17 04:38:03;;;;;;;8.73;5.85;;;17.60;91.60;;;;;;5030994;28;20382;-45
2023/07/17 04:40:30;;;;;;;11.55;6.03;;;17.70;91.30;;;;;;5030549;28;20033;-47
2023/07/17 04:42:57;;;;;;;8.93;5.57;;;17.80;91.30;;;;;;5045684;28;20417;-46
2023/07/17 04:45:23;;;;;;;6.18;5.07;;;17.90;91.20;;;;;;5030505;28;20036;-46
2023/07/17 04:47:48;;;;;;;9.63;6.18;;;18.00;91.30;;;;;;5030958;28;20096;-49
2023/07/17 04:50:14;;;;;;;7.47;5.28;;;18.00;91.30;;;;;;5030532;28;20540;-45
2023/07/17 04:52:40;;;;;;;8.35;5.60;;;18.00;91.30;;;;;;5029843;28;20438;-48
2023/07/17 04:55:06;;;;;;;8.00;5.30;;;18.00;91.30;;;;;;5030490;28;20393;-46
2023/07/17 04:57:31;;;;;;;9.15;5.55;;;17.90;91.10;;;;;;5029191;28;20062;-46
2023/07/17 04:59:57;;;;;;;8.40;5.45;;;17.90;91.20;;;;;;5030344;28;20028;-45
2023/07/17 05:02:22;;;;;;;12.65;5.50;;;17.90;91.20;;;;;;5029830;28;20208;-46
2023/07/17 05:04:48;;;;;;;9.13;5.72;;;17.90;91.60;;;;;;5030535;28;20018;-46
2023/07/17 05:07:14;;;;;;;12.90;5.82;;;17.90;91.60;;;;;;5031603;28;20079;-46
2023/07/17 05:09:40;;;;;;;10.68;5.78;;;17.90;91.70;;;;;;5030083;28;20429;-47
2023/07/17 05:12:05;;;;;;;8.30;4.88;;;18.00;91.50;;;;;;5029795;28;20029;-46
2023/07/17 05:14:31;;;;;;;9.23;5.38;;;17.90;91.30;;;;;;5030079;28;20026;-47
2023/07/17 05:16:56;;;;;;;6.80;5.07;;;17.90;91.30;;;;;;5030513;28;20021;-50
2023/07/17 05:19:22;;;;;;;7.20;5.00;;;18.00;91.30;;;;;;5045053;28;20289;-46
2023/07/17 05:21:47;;;;;;;7.28;5.30;;;17.90;91.40;;;;;;5029353;28;20053;-48
2023/07/17 05:24:13;;;;;;;8.40;5.53;;;18.00;91.40;;;;;;5029750;28;20064;-46
2023/07/17 05:26:39;;;;;;;8.63;5.32;;;18.00;91.70;;;;;;5028596;28;20033;-45
2023/07/17 05:29:04;;;;;;;10.70;6.53;;;18.00;91.80;;;;;;5029775;28;20087;-47
2023/07/17 05:31:30;;;;;;;12.40;5.95;;;18.10;92.00;;;;;;5029130;28;20470;-47
2023/07/17 05:33:56;;;;;;;7.72;5.57;;;18.10;92.00;;;;;;5029006;28;20022;-46
2023/07/17 05:36:22;;;;;;;10.43;6.57;;;18.10;92.10;;;;;;5045166;28;20029;-47
2023/07/17 05:38:47;;;;;;;12.98;5.90;;;18.00;92.40;;;;;;5041895;28;20025;-48
2023/07/17 05:41:13;;;;;;;9.70;5.47;;;18.00;92.40;;;;;;5043343;28;20033;-47
2023/07/17 05:43:39;;;;;;;9.70;5.93;;;18.10;92.70;;;;;;5027304;28;20412;-46
2023/07/17 05:46:04;;;;;;;10.15;5.65;;;18.10;92.70;;;;;;5027175;28;20032;-46
2023/07/17 05:48:30;;;;;;;8.40;5.60;;;18.10;92.70;;;;;;5030257;28;20433;-47
2023/07/17 05:50:55;;;;;;;9.45;5.78;;;18.20;92.90;;;;;;5028496;28;20072;-47
2023/07/17 05:53:21;;;;;;;11.77;6.18;;;18.30;92.80;;;;;;5029090;28;20073;-47
2023/07/17 05:55:47;;;;;;;7.10;5.25;;;18.40;92.90;;;;;;5028429;28;20022;-48
2023/07/17 05:58:12;;;;;;;9.45;5.88;;;18.50;93.10;;;;;;5027618;28;20021;-46
2023/07/17 06:00:38;;;;;;;9.13;5.30;;;18.40;92.70;;;;;;5028773;28;20302;-46
2023/07/17 06:03:03;;;;;;;10.43;5.22;;;18.40;92.80;;;;;;5028842;28;20021;-48
2023/07/17 06:05:29;;;;;;;7.78;5.10;;;18.50;93.10;;;;;;5028140;28;20061;-46
2023/07/17 06:07:54;;;;;;;12.68;5.30;;;18.60;93.20;;;;;;5030224;28;20537;-46
2023/07/17 06:10:20;;;;;;;9.15;5.30;;;18.60;92.80;;;;;;5028957;28;20056;-50
2023/07/17 06:12:45;;;;;;;7.78;5.80;;;18.70;92.90;;;;;;5044207;28;20149;-46
2023/07/17 06:15:13;;;;;;;8.25;5.47;;;18.70;92.80;;;;;;5028727;28;20022;-46
2023/07/17 06:17:39;;;;;;;6.90;5.00;;;18.70;92.70;;;;;;5028513;28;20026;-46
2023/07/17 06:20:06;;;;;;;10.85;5.22;;;18.70;92.80;;;;;;5028650;28;20109;-46
2023/07/17 06:22:32;;;;;;;8.07;5.32;;;18.80;92.90;;;;;;5028580;28;20018;-48
2023/07/17 06:24:57;;;;;;;10.40;5.45;;;18.80;93.00;;;;;;5028942;28;20025;-46
2023/07/17 06:27:23;;;;;;;9.55;5.93;;;18.90;93.20;;;;;;5029028;28;20483;-46
2023/07/17 06:29:48;;;;;;;7.82;5.53;;;18.80;93.00;;;;;;5028706;28;20033;-46
2023/07/17 06:32:14;;;;;;;7.32;4.70;;;18.90;93.00;;;;;;5028507;28;20025;-46
2023/07/17 06:34:41;;;;;;;11.70;5.82;;;19.00;93.00;;;;;;5028738;28;20241;-46
2023/07/17 06:37:07;;;;;;;7.40;5.18;;;19.10;92.60;;;;;;5029021;28;20049;-46
2023/07/17 06:39:33;;;;;;;7.05;4.93;;;19.30;93.00;;;;;;5028455;28;20037;-46
2023/07/17 06:41:58;;;;;;;7.25;4.68;;;19.40;92.80;;;;;;5028718;28;20132;-46
2023/07/17 06:44:24;;;;;;;6.80;4.95;;;19.60;92.60;;;;;;5028537;28;20736;-46
2023/07/17 06:46:50;;;;;;;11.18;5.35;;;19.70;92.30;;;;;;5028801;28;20097;-46
2023/07/17 06:49:15;;;;;;;9.15;4.82;;;19.80;92.00;;;;;;5027642;28;20041;-46
2023/07/17 06:51:41;;;;;;;8.85;5.20;;;19.90;91.60;;;;;;5026876;28;20395;-46
2023/07/17 06:54:06;;;;;;;8.10;4.47;;;20.00;91.30;;;;;;5028947;28;20227;-46
2023/07/17 06:56:32;;;;;;;6.22;3.95;;;20.10;91.30;;;;;;5028156;28;20064;-49
2023/07/17 06:58:57;;;;;;;9.00;4.70;;;20.10;91.40;;;;;;5027462;28;20045;-46
2023/07/17 07:01:23;;;;;;;8.55;4.88;;;20.20;91.20;;;;;;5027298;28;20034;-46
2023/07/17 07:03:48;;;;;;;8.77;4.97;;;20.20;91.10;;;;;;5028409;28;20438;-46
2023/07/17 07:06:14;;;;;;;7.47;5.00;;;20.20;90.60;;;;;;5028308;28;20075;-47
2023/07/17 07:08:42;;;;;;;6.57;4.53;;;20.20;90.10;;;;;;5043240;28;20144;-47
2023/07/17 07:11:08;;;;;;;11.25;5.07;;;20.20;90.40;;;;;;5043784;28;20510;-47
2023/07/17 07:13:34;;;;;;;8.70;4.53;;;20.30;90.90;;;;;;5028010;28;20514;-47
2023/07/17 07:16:00;;;;;;;6.03;4.28;;;20.30;90.70;;;;;;5028897;28;20025;-49
2023/07/17 07:18:25;;;;;;;9.60;4.25;;;20.40;90.60;;;;;;5028291;28;20029;-46
2023/07/17 07:20:54;;;;;;;7.40;3.97;;;20.50;89.40;;;;;;5044128;28;20414;-49
2023/07/17 07:23:20;;;;;;;8.40;4.97;;;20.50;90.00;;;;;;5027912;28;20065;-46
2023/07/17 07:25:46;;;;;;;9.07;4.95;;;20.50;88.90;;;;;;5028043;28;20025;-47
2023/07/17 07:28:12;;;;;;;13.15;5.20;;;20.60;89.30;;;;;;5031734;28;20025;-47
2023/07/17 07:30:38;;;;;;;8.65;4.40;;;20.70;88.40;;;;;;5033269;28;20025;-46
2023/07/17 07:33:04;;;;;;;9.10;5.05;;;20.80;88.00;;;;;;5031475;28;20406;-46
2023/07/17 07:35:30;;;;;;;9.48;4.80;;;20.80;88.30;;;;;;5032138;28;20030;-49
2023/07/17 07:37:55;;;;;;;6.35;4.35;;;20.90;89.10;;;;;;5031637;28;20017;-47
2023/07/17 07:40:21;;;;;;;6.68;4.47;;;20.90;88.70;;;;;;5030886;28;20028;-47
2023/07/17 07:42:47;;;;;;;8.32;4.03;;;21.00;87.80;;;;;;5030923;28;20040;-48
2023/07/17 07:45:13;;;;;;;6.78;4.32;;;21.10;88.00;;;;;;5031377;28;20064;-48
2023/07/17 07:47:39;;;;;;;9.00;4.38;;;21.30;87.60;;;;;;5030573;28;20610;-46
2023/07/17 07:50:06;;;;;;;8.60;4.40;;;21.30;86.30;;;;;;5030644;28;20109;-48
2023/07/17 07:52:31;;;;;;;7.55;4.50;;;21.40;86.20;;;;;;5031652;28;20390;-48
2023/07/17 07:54:57;;;;;;;8.75;4.22;;;21.50;86.40;;;;;;5030164;28;20037;-46
2023/07/17 07:57:23;;;;;;;8.80;4.20;;;21.50;85.20;;;;;;5029685;28;20048;-47
2023/07/17 07:59:49;;;;;;;7.35;4.30;;;21.60;86.40;;;;;;5044965;28;20471;-46
2023/07/17 08:02:15;;;;;;;7.88;4.30;;;21.70;85.00;;;;;;5030254;28;20025;-47
2023/07/17 08:04:41;;;;;;;11.80;4.28;;;21.80;85.00;;;;;;5031034;28;20402;-46
2023/07/17 08:07:07;;;;;;;8.25;3.88;;;22.00;84.60;;;;;;5031127;28;20032;-46
2023/07/17 08:09:33;;;;;;;8.63;4.88;;;22.20;84.10;;;;;;5030947;28;20075;-46
2023/07/17 08:11:58;;;;;;;11.02;4.50;;;22.40;83.40;;;;;;5030996;28;20021;-47
2023/07/17 08:14:24;;;;;;;5.68;4.32;;;22.50;82.00;;;;;;5031565;28;20084;-47
2023/07/17 08:16:50;;;;;;;6.50;3.67;;;22.60;83.60;;;;;;5031215;28;20045;-47
2023/07/17 08:19:16;;;;;;;6.85;3.85;;;22.90;82.10;;;;;;5031327;28;20029;-50
2023/07/17 08:21:42;;;;;;;7.32;3.88;;;23.10;80.70;;;;;;5031368;28;20056;-49
2023/07/17 08:24:09;;;;;;;8.00;4.00;;;23.50;79.10;;;;;;5031044;28;20060;-47
2023/07/17 08:26:35;;;;;;;7.90;3.35;;;23.90;80.10;;;;;;5031130;28;20513;-49
2023/07/17 08:29:02;;;;;;;7.78;4.22;;;25.00;78.00;;;;;;5031166;28;20026;-47
2023/07/17 08:31:28;;;;;;;5.22;3.72;;;26.00;76.20;;;;;;5030780;28;20487;-47
2023/07/17 08:33:53;;;;;;;6.60;3.78;;;26.60;73.30;;;;;;5030633;28;20096;-47
2023/07/17 08:36:19;;;;;;;7.25;4.00;;;26.90;72.60;;;;;;5031186;28;20120;-47
2023/07/17 08:38:46;;;;;;;5.47;3.40;;;26.60;71.50;;;;;;5029545;28;20021;-47
2023/07/17 08:41:13;;;;;;;7.15;3.70;;;26.30;71.60;;;;;;5031049;28;20042;-47
2023/07/17 08:43:39;;;;;;;4.63;3.47;;;25.90;72.00;;;;;;5030749;28;20030;-49
2023/07/17 08:46:05;;;;;;;6.22;3.47;;;25.70;73.10;;;;;;5030778;28;20398;-47
2023/07/17 08:48:31;;;;;;;7.43;3.45;;;25.60;72.20;;;;;;5030511;28;20040;-50
2023/07/17 08:50:58;;;;;;;7.53;3.83;;;25.30;72.80;;;;;;5030351;28;20021;-47
2023/07/17 08:53:27;;;;;;;4.55;3.08;;;25.50;73.20;;;;;;5031871;28;20057;-51
2023/07/17 08:55:55;;;;;;;5.90;3.45;;;25.90;72.70;;;;;;5036289;28;20075;-48
2023/07/17 08:58:24;;;;;;;5.20;2.65;;;27.20;69.20;;;;;;5029887;28;20160;-49
2023/07/17 09:00:52;;;;;;;4.35;2.78;;;28.50;65.20;;;;;;5030564;28;20018;-50
2023/07/17 09:03:18;;;;;;;4.07;2.50;;;29.40;63.50;;;;;;5030288;28;20483;-47
2023/07/17 09:05:44;;;;;;;5.78;2.33;;;29.90;62.10;;;;;;5034257;28;20021;-48
2023/07/17 09:08:11;;;;;;;3.80;2.20;;;30.40;61.40;;;;;;5030802;28;20430;-48
2023/07/17 09:10:37;;;;;;;3.83;1.70;;;31.70;59.90;;;;;;5030671;28;20024;-46
2023/07/17 09:13:04;;;;;;;3.30;1.80;;;32.00;57.10;;;;;;5030419;28;20026;-45
2023/07/17 09:15:31;;;;;;;2.58;1.95;;;32.10;55.60;;;;;;5030936;28;20134;-45
2023/07/17 09:17:56;;;;;;;3.80;1.73;;;32.40;54.80;;;;;;5030324;28;20018;-46
2023/07/17 09:20:22;;;;;;;3.63;1.85;;;32.60;54.80;;;;;;5030358;28;20025;-48
2023/07/17 09:22:48;;;;;;;4.45;1.98;;;32.40;54.00;;;;;;5029728;28;20206;-48
2023/07/17 09:25:15;;;;;;;3.75;1.80;;;32.50;53.40;;;;;;5030813;28;20057;-47
2023/07/17 09:27:49;;;;;;;4.38;2.30;;;32.60;53.60;;;;;;5030401;28;20371;-45
2023/07/17 09:30:20;;;;;;;3.75;2.30;;;33.00;53.40;;;;;;5030267;28;20038;-49
2023/07/17 09:32:46;;;;;;;4.28;2.25;;;32.40;53.50;;;;;;5029463;28;20143;-45
2023/07/17 09:35:13;;;;;;;3.28;2.05;;;32.30;53.40;;;;;;5030166;28;20021;-47
2023/07/17 09:37:44;;;;;;;3.88;2.05;;;32.70;53.60;;;;;;5028673;28;20104;-49
2023/07/17 09:40:14;;;;;;;4.93;2.05;;;32.80;54.70;;;;;;5045341;28;20482;-45
2023/07/17 09:42:54;;;;;;;2.83;1.80;;;33.80;53.10;;;;;;5029751;28;20075;-48
2023/07/17 09:45:20;;;;;;;4.07;2.03;;;33.10;51.60;;;;;;5028485;28;20221;-47
2023/07/17 09:47:49;;;;;;;3.80;2.45;;;33.10;53.20;;;;;;5030081;28;20030;-45
2023/07/17 09:50:16;;;;;;;6.28;2.47;;;33.60;51.70;;;;;;5030725;28;20018;-49
2023/07/17 09:52:45;;;;;;;3.10;1.90;;;34.30;51.20;;;;;;5031150;28;20475;-47
2023/07/17 09:55:10;;;;;;;4.40;2.40;;;32.90;51.80;;;;;;5044875;28;20083;-47
2023/07/17 09:57:38;;;;;;;4.40;2.13;;;32.80;52.20;;;;;;5029396;28;20268;-46
2023/07/17 10:00:13;;;;;;;2.33;2.10;;;32.60;52.10;;;;;;5029805;28;20040;-45
2023/07/17 10:02:45;;;;;;;2.67;2.00;;;32.60;52.20;;;;;;5029755;28;20060;-47
2023/07/17 10:05:11;;;;;;;4.75;2.28;;;33.20;53.00;;;;;;5030103;28;20544;-47
2023/07/17 10:07:38;;;;;;;3.47;1.90;;;32.30;52.10;;;;;;5029788;28;20037;-45
2023/07/17 10:10:05;;;;;;;2.85;1.90;;;31.20;52.50;;;;;;5029584;28;20026;-45
2023/07/17 10:12:33;;;;;;;6.60;2.35;;;30.10;54.40;;;;;;5030971;28;20095;-48
2023/07/17 10:14:59;;;;;;;3.35;2.20;;;29.10;55.30;;;;;;5029577;28;20021;-44
2023/07/17 10:17:29;;;;;;;4.03;2.00;;;29.30;56.20;;;;;;5029402;28;20044;-46
2023/07/17 10:20:00;;;;;;;5.05;2.55;;;28.30;55.90;;;;;;5028279;28;20406;-47
2023/07/17 10:22:33;;;;;;;6.05;2.35;;;27.80;57.20;;;;;;5029129;28;20036;-48
2023/07/17 10:25:08;;;;;;;6.10;2.53;;;27.10;58.40;;;;;;5022342;28;20025;-45
2023/07/17 10:27:38;;;;;;;5.43;2.42;;;26.60;61.00;;;;;;5029888;28;20172;-48
2023/07/17 10:30:26;;;;;;;4.87;2.50;;;26.20;60.90;;;;;;5029264;28;20433;-47
2023/07/17 10:33:19;;;;;;;7.25;2.58;;;25.80;60.80;;;;;;5029075;28;20026;-45
2023/07/17 10:35:56;;;;;;;3.88;1.80;;;27.30;60.20;;;;;;5029553;28;20029;-48
2023/07/17 10:38:27;;;;;;;2.67;2.17;;;29.30;58.00;;;;;;5029344;28;20096;-45
2023/07/17 10:41:22;;;;;;;3.53;2.20;;;30.10;56.40;;;;;;5029533;28;20471;-48
2023/07/17 10:43:58;;;;;;;3.67;2.22;;;30.60;55.90;;;;;;5024500;28;20065;-47
2023/07/17 10:46:28;;;;;;;4.43;2.22;;;30.00;55.20;;;;;;5029502;28;20033;-45
2023/07/17 10:48:54;;;;;;;5.80;2.05;;;29.00;56.00;;;;;;5029237;28;20273;-46
2023/07/17 10:51:25;;;;;;;3.65;2.42;;;28.20;57.50;;;;;;5014392;28;20196;-46
2023/07/17 10:53:54;;;;;;;3.38;2.50;;;27.40;59.70;;;;;;5029089;28;20057;-46
2023/07/17 10:56:21;;;;;;;4.80;2.75;;;26.80;59.30;;;;;;5028964;28;20494;-46
2023/07/17 10:58:51;;;;;;;4.15;2.25;;;26.30;60.90;;;;;;5028980;28;20037;-46
2023/07/17 11:01:16;;;;;;;5.22;2.38;;;25.90;60.30;;;;;;5025873;28;20029;-47
2023/07/17 11:03:47;;;;;;;3.97;2.60;;;25.30;62.10;;;;;;5032550;28;20505;-47
2023/07/17 11:06:17;;;;;;;7.22;2.80;;;25.20;63.00;;;;;;5033049;28;20425;-46
2023/07/17 11:08:53;;;;;;;6.93;3.35;;;25.10;63.70;;;;;;5032832;28;20025;-46
2023/07/17 11:11:19;;;;;;;4.13;2.45;;;25.50;62.50;;;;;;5031630;28;20029;-46
2023/07/17 11:13:48;;;;;;;4.40;2.35;;;25.30;63.30;;;;;;5032768;28;20493;-45
2023/07/17 11:16:14;;;;;;;3.03;2.20;;;25.50;60.20;;;;;;5033107;28;20033;-45
2023/07/17 11:18:47;;;;;;;6.07;2.30;;;25.30;61.10;;;;;;5032594;28;20029;-46
2023/07/17 11:21:18;;;;;;;3.03;2.65;;;25.20;62.60;;;;;;5032532;28;20037;-47
2023/07/17 11:23:46;;;;;;;4.97;2.67;;;25.30;61.30;;;;;;5032852;28;20029;-45
2023/07/17 11:26:13;;;;;;;6.97;2.92;;;24.90;60.60;;;;;;5033531;28;20495;-48
2023/07/17 11:28:39;;;;;;;3.80;2.42;;;24.70;60.00;;;;;;5032420;28;20218;-45
2023/07/17 11:31:17;;;;;;;4.18;2.80;;;25.40;60.40;;;;;;5032482;28;20398;-47
2023/07/17 11:33:49;;;;;;;4.38;2.55;;;27.10;58.50;;;;;;5032422;28;20028;-48
2023/07/17 11:36:15;;;;;;;3.03;2.30;;;28.60;58.00;;;;;;5032768;28;20112;-47
2023/07/17 11:38:41;;;;;;;4.68;2.70;;;28.40;56.40;;;;;;5032344;28;20159;-47
2023/07/17 11:41:06;;;;;;;6.95;2.67;;;28.20;56.90;;;;;;5032602;28;20029;-45
2023/07/17 11:43:33;;;;;;;3.20;2.42;;;28.50;55.90;;;;;;5032464;28;20441;-47
2023/07/17 11:46:03;;;;;;;5.35;2.50;;;28.10;54.80;;;;;;5039763;28;20486;-47
2023/07/17 11:48:33;;;;;;;8.77;2.35;;;27.60;56.50;;;;;;5031465;28;20116;-46
2023/07/17 11:51:03;;;;;;;3.30;2.17;;;26.90;56.50;;;;;;5023826;28;20045;-49
2023/07/17 11:53:28;;;;;;;4.72;2.40;;;27.80;56.00;;;;;;5032008;28;20023;-45
2023/07/17 11:55:55;;;;;;;2.83;2.00;;;28.20;55.10;;;;;;5035504;28;20108;-46
2023/07/17 11:58:22;;;;;;;3.15;2.08;;;29.20;55.10;;;;;;5032098;28;20033;-46
2023/07/17 12:00:49;;;;;;;3.33;2.20;;;30.10;52.90;;;;;;5031533;28;20029;-46
2023/07/17 12:03:15;;;;;;;3.55;2.10;;;30.80;52.50;;;;;;5031760;28;20060;-46
2023/07/17 12:05:40;;;;;;;5.30;2.40;;;31.30;52.10;;;;;;5031748;28;20067;-46
2023/07/17 12:08:06;;;;;;;3.13;2.17;;;30.90;51.30;;;;;;5031521;28;20086;-48
2023/07/17 12:10:32;;;;;;;4.32;2.30;;;30.70;53.20;;;;;;5031850;28;20029;-49
2023/07/17 12:12:58;;;;;;;3.83;2.20;;;30.40;53.80;;;;;;5029839;28;20028;-46
2023/07/17 12:15:23;;;;;;;5.60;2.35;;;29.80;52.90;;;;;;5040282;28;20029;-48
2023/07/17 12:17:50;;;;;;;5.80;2.20;;;29.90;52.80;;;;;;5031190;28;20025;-46
2023/07/17 12:20:15;;;;;;;6.00;2.47;;;29.60;55.00;;;;;;5031066;28;20056;-48
2023/07/17 12:22:41;;;;;;;2.95;2.35;;;29.20;54.50;;;;;;5030950;28;20115;-49
2023/07/17 12:25:08;;;;;;;4.65;2.47;;;28.80;53.20;;;;;;5031319;28;20029;-46
2023/07/17 12:27:33;;;;;;;5.45;2.50;;;28.50;55.80;;;;;;5031467;28;20029;-48
2023/07/17 12:29:59;;;;;;;8.10;3.35;;;28.00;56.60;;;;;;5031320;28;20031;-47
2023/07/17 12:32:24;;;;;;;6.25;2.67;;;27.70;56.00;;;;;;5033722;28;20183;-46
2023/07/17 12:34:50;;;;;;;5.60;2.70;;;27.30;57.70;;;;;;5040671;28;20479;-46
2023/07/17 12:37:16;;;;;;;5.22;2.45;;;27.00;57.50;;;;;;5031291;28;20022;-45
2023/07/17 12:39:41;;;;;;;5.55;2.83;;;26.90;59.10;;;;;;5030624;28;20144;-46
2023/07/17 12:42:07;;;;;;;3.65;2.60;;;27.40;58.30;;;;;;5030869;28;20034;-45